WetterOnline ( http://www.wetteronline.de )

Wetter aktuell Warendorf

Aktuelles Wetter: Werl (84m)

6-stündlich | Neueste Meldungen
Ortszeit Temperatur Wetter
Mi, 18.07. 14:00 24.1° C wolkig
Mi, 18.07. 8:00 17.3° C wolkenlos
Mi, 18.07. 2:00 16.5° C fast wolkenlos
Di, 17.07. 20:00 27.1° C leicht bewölkt
Di, 17.07. 14:00 28.6° C leicht bewölkt
Di, 17.07. 8:00 18.5° C fast wolkenlos
Di, 17.07. 2:00 15.1° C wolkig
Mo, 16.07. 20:00 27.2° C leicht bewölkt
Ortszeit Temperatur Wetter
Mi, 18.07. 19:30 23.5° C bedeckt
Mi, 18.07. 19:20 23.5° C bedeckt
Mi, 18.07. 19:10 23.8° C bedeckt
Mi, 18.07. 19:00 24.2° C fast wolkenlos
Mi, 18.07. 18:50 24.2° C fast wolkenlos
Mi, 18.07. 18:40 24.0° C fast wolkenlos
Mi, 18.07. 18:30 24.2° C fast wolkenlos
Mi, 18.07. 18:00 24.6° C bewölkt
Mi, 18.07. 17:30 24.8° C fast wolkenlos
Mi, 18.07. 17:00 25.2° C wolkig
Mi, 18.07. 16:30 24.1° C bedeckt
Ortszeit Relative Feuchte Sichtweite
Mi, 18.07. 14:00 39% 35 km
Mi, 18.07. 8:00 72% 20 km
Mi, 18.07. 2:00 73% 30 km
Di, 17.07. 20:00 36% 35 km
Di, 17.07. 14:00 32% 27 km
Di, 17.07. 8:00 74% 24 km
Di, 17.07. 2:00 81% 30 km
Mo, 16.07. 20:00 34% 60 km
Ortszeit Relative Feuchte Sichtweite
Mi, 18.07. 19:30 42% 45 km
Mi, 18.07. 19:20 42% -
Mi, 18.07. 19:10 41% -
Mi, 18.07. 19:00 38% 40 km
Mi, 18.07. 18:50 38% -
Mi, 18.07. 18:40 39% -
Mi, 18.07. 18:30 37% 50 km
Mi, 18.07. 18:00 36% 50 km
Mi, 18.07. 17:30 35% 45 km
Mi, 18.07. 17:00 35% 45 km
Mi, 18.07. 16:30 41% 45 km
Ortszeit Niederschlagsmenge Niederschlagsart
Mi, 18.07. 14:00 0.0 l/m2 in 6 Std. -
Mi, 18.07. 8:00 0.0 l/m2 in 12 Std. -
Mi, 18.07. 2:00 0.0 l/m2 in 6 Std. -
Di, 17.07. 20:00 0.1 l/m2 in 12 Std. Sprühregen
Di, 17.07. 14:00 0.0 l/m2 in 6 Std. -
Di, 17.07. 8:00 0.0 l/m2 in 12 Std. -
Di, 17.07. 2:00 0.0 l/m2 in 6 Std. -
Mo, 16.07. 20:00 0.0 l/m2 in 12 Std. -
Ortszeit Niederschlagsmenge Niederschlagsart
Mi, 18.07. 19:30 0.0 l/m2 in 1 Std. -
Mi, 18.07. 19:20 keine Meldung -
Mi, 18.07. 19:10 keine Meldung -
Mi, 18.07. 19:00 0.0 l/m2 in 1 Std. -
Mi, 18.07. 18:50 keine Meldung -
Mi, 18.07. 18:40 keine Meldung -
Mi, 18.07. 18:30 0.0 l/m2 in 1 Std. -
Mi, 18.07. 18:00 0.0 l/m2 in 1 Std. -
Mi, 18.07. 17:30 0.0 l/m2 in 1 Std. -
Mi, 18.07. 17:00 0.0 l/m2 in 1 Std. -
Mi, 18.07. 16:30 0.0 l/m2 in 1 Std. -
Ortszeit Stärke Spitze Richtung
km/h Bft. km/h Grad Sektor
Mi, 18.07. 14:00 7 2 25 340° N
Mi, 18.07. 8:00 6 1 13 230° SW
Mi, 18.07. 2:00 9 2 31 290° W
Di, 17.07. 20:00 14 3 36 300° NW
Di, 17.07. 14:00 14 3 29 250° W
Di, 17.07. 8:00 0 0 0 - -
Di, 17.07. 2:00 0 0 18 - -
Mo, 16.07. 20:00 7 2 18 10° N
Ortszeit Stärke Spitze Richtung
km/h Bft. km/h Grad Sektor
Mi, 18.07. 19:30 9 2 15 360° N
Mi, 18.07. 19:20 9 2 - 360° N
Mi, 18.07. 19:10 7 2 - 360° N
Mi, 18.07. 19:00 7 2 22 310° NW
Mi, 18.07. 18:50 7 2 - 310° NW
Mi, 18.07. 18:40 4 1 - 340° N
Mi, 18.07. 18:30 9 2 20 340° N
Mi, 18.07. 18:00 11 2 19 330° NW
Mi, 18.07. 17:30 7 2 18 310° NW
Mi, 18.07. 17:00 13 3 24 340° N
Mi, 18.07. 16:30 11 2 24 30° NO
Ortszeit Untergrenze Bedeckung Gattung
total tief tief mittel hoch
Mi, 18.07. 14:00 1500 m 8/8 3/8 - - -
Mi, 18.07. 8:00 - 0/8 0/8 - - -
Mi, 18.07. 2:00 1500 m 1/8 1/8 - - -
Di, 17.07. 20:00 3600 m 2/8 2/8 - - -
Di, 17.07. 14:00 9000 m 8/8 0/8 - - -
Di, 17.07. 8:00 8700 m 2/8 0/8 - - -
Di, 17.07. 2:00 9000 m 7/8 0/8 - - -
Mo, 16.07. 20:00 8400 m 7/8 0/8 - - -
Ortszeit Bedeckungsgrad in Achtel und Wolkenuntergrenze
Mi, 18.07. 19:30 9 9 9
Mi, 18.07. 19:20 9 9 9
Mi, 18.07. 19:10 9 9 9
Mi, 18.07. 19:00 1(2100m)
Mi, 18.07. 18:50 1(2100m)
Mi, 18.07. 18:40 1(2100m)
Mi, 18.07. 18:30 1(1800m)
Mi, 18.07. 18:00 5(1800m)
Mi, 18.07. 17:30 3(1800m)
Mi, 18.07. 17:00 6(1800m)
Mi, 18.07. 16:30 8(1800m)
Ortszeit Luftdruck NN (hPa) Tendenz (hPa in 3 Std.)
Mi, 18.07. 14:00 1019 - 0,3
Mi, 18.07. 8:00 1019 + 0,8
Mi, 18.07. 2:00 1018 + 1,6
Di, 17.07. 20:00 1014 + 0,2
Di, 17.07. 14:00 1014 + 0,1
Di, 17.07. 8:00 1014 + 0,5
Di, 17.07. 2:00 1013 + 0,7
Mo, 16.07. 20:00 1011 - 0,3
Ortszeit Luftdruck NN (hPa) Tendenz (hPa in 3 Std.)
Mi, 18.07. 19:30 1018 - 0,5
Mi, 18.07. 19:20 1018 keine Meldung
Mi, 18.07. 19:10 1018 keine Meldung
Mi, 18.07. 19:00 1018 - 0,6
Mi, 18.07. 18:50 1018 keine Meldung
Mi, 18.07. 18:40 1018 keine Meldung
Mi, 18.07. 18:30 1018 - 0,6
Mi, 18.07. 18:00 1018 - 0,6
Mi, 18.07. 17:30 1018 - 0,8
Mi, 18.07. 17:00 1018 - 0,6
Mi, 18.07. 16:30 1018 - 0,6
Ortszeit Schneehöhe (cm)
Mi, 18.07. 14:00 -
Mi, 18.07. 8:00 -
Mi, 18.07. 2:00 -
Di, 17.07. 20:00 -
Di, 17.07. 14:00 -
Di, 17.07. 8:00 -
Di, 17.07. 2:00 -
Mo, 16.07. 20:00 -
Ortszeit Schneehöhe (cm)
Mi, 18.07. 19:30 -
Mi, 18.07. 19:20 -
Mi, 18.07. 19:10 -
Mi, 18.07. 19:00 -
Mi, 18.07. 18:50 -
Mi, 18.07. 18:40 -
Mi, 18.07. 18:30 -
Mi, 18.07. 18:00 -
Mi, 18.07. 17:30 -
Mi, 18.07. 17:00 -
Mi, 18.07. 16:30 -
Link zu dieser Seite / Seite empfehlen

Das Wetter in ...